Arivaca, Arizona
Current Conditions -  °F | °C
As of 6:54 PM on Wednesday 22 Oct 2014 (Local Time) from KOLS Reporting Station
Clear Clear  
Wind Chill: 66°   Ceiling: Unl
Heat Index: 66°   Visibility: 10mi
Dew Point: 47°   Wind: 8mph
Humidity: 50%   Direction: 80°E
Pressure: 30.06"   Gusts: NA
Location:  31.57°N, 111.33°W
Report Text: KOLS 230154Z AUTO 08007KT 10SM CLR 19/08 A3006 RMK AO2 SLPNO T01890083
Loading
Personal Weather Stations






























Interactive Weather Map New forecast layout! Learn more

10-Day Weather Forecast

Advertisements
Track Severe Weather on mobile